createdAt,value
2024-02-08T00:00:00.636Z,-12.1
2024-02-08T00:05:08.809Z,-12.0
2024-02-08T00:10:01.059Z,-12.3
2024-02-08T00:15:00.662Z,-12.2
2024-02-08T00:20:08.623Z,-12.2
2024-02-08T00:25:00.691Z,-12.2
2024-02-08T00:30:00.989Z,-12.2
2024-02-08T00:35:11.557Z,-12.7
2024-02-08T00:40:00.630Z,-12.4
2024-02-08T00:45:00.660Z,-12.9
2024-02-08T00:50:08.626Z,-12.6
2024-02-08T00:55:01.118Z,-12.8
2024-02-08T01:00:01.050Z,-12.7
2024-02-08T01:05:08.310Z,-13.4
2024-02-08T01:10:01.200Z,-13.6
2024-02-08T01:15:01.989Z,-13.3
2024-02-08T01:20:08.600Z,-13.2
2024-02-08T01:25:01.037Z,-12.9
2024-02-08T01:30:01.152Z,-12.9
2024-02-08T01:35:08.610Z,-12.6
2024-02-08T01:40:00.642Z,-12.3
2024-02-08T01:45:20.234Z,-13.0
2024-02-08T01:50:15.367Z,-12.5
2024-02-08T01:55:00.695Z,-12.8
2024-02-08T02:00:00.866Z,-12.6
2024-02-08T02:05:09.092Z,-12.8
2024-02-08T02:10:00.706Z,-13.0
2024-02-08T02:15:01.517Z,-13.4
2024-02-08T02:20:10.564Z,-13.4
2024-02-08T02:25:00.880Z,-13.5
2024-02-08T02:30:00.878Z,-13.5
2024-02-08T02:35:08.363Z,-13.2
2024-02-08T02:40:00.684Z,-13.5
2024-02-08T02:45:00.644Z,-12.9
2024-02-08T02:50:08.331Z,-13.3
2024-02-08T02:55:00.666Z,-13.5
2024-02-08T03:00:10.567Z,-13.6
2024-02-08T03:05:08.351Z,-13.2
2024-02-08T03:10:00.677Z,-13.5
2024-02-08T03:15:00.855Z,-13.4
2024-02-08T03:20:08.619Z,-13.8
2024-02-08T03:25:00.946Z,-13.1
2024-02-08T03:30:01.187Z,-13.2
2024-02-08T03:35:08.139Z,-13.7
2024-02-08T03:40:00.668Z,-14.1
2024-02-08T03:45:00.627Z,-13.8
2024-02-08T03:50:08.206Z,-13.4
2024-02-08T03:55:00.703Z,-13.1
2024-02-08T04:00:00.659Z,-13.9
2024-02-08T04:05:08.308Z,-13.5
2024-02-08T04:10:01.448Z,-13.9
2024-02-08T04:15:01.327Z,-13.0
2024-02-08T04:20:08.446Z,-13.2
2024-02-08T04:25:00.721Z,-12.8
2024-02-08T04:30:00.634Z,-13.2
2024-02-08T04:35:10.735Z,-13.2
2024-02-08T04:40:00.630Z,-13.1
2024-02-08T04:45:00.684Z,-13.4
2024-02-08T04:50:10.404Z,-13.1
2024-02-08T04:55:00.633Z,-12.7
2024-02-08T05:00:01.408Z,-12.8
2024-02-08T05:05:10.336Z,-13.1
2024-02-08T05:10:00.698Z,-13.2
2024-02-08T05:15:10.615Z,-13.2
2024-02-08T05:20:10.315Z,-12.8
2024-02-08T05:25:00.757Z,-12.7
2024-02-08T05:30:00.665Z,-12.7
2024-02-08T05:35:08.697Z,-13.0
2024-02-08T05:40:11.275Z,-13.0
2024-02-08T05:45:00.661Z,-12.7
2024-02-08T05:50:08.319Z,-13.2
2024-02-08T05:55:00.708Z,-12.8
2024-02-08T06:00:00.908Z,-13.3
2024-02-08T06:05:08.194Z,-12.9
2024-02-08T06:10:00.693Z,-12.8
2024-02-08T06:15:00.966Z,-12.6
2024-02-08T06:20:08.814Z,-12.2
2024-02-08T06:25:01.065Z,-12.9
2024-02-08T06:30:00.682Z,-12.7
2024-02-08T06:35:08.771Z,-12.8
2024-02-08T06:40:01.027Z,-12.8
2024-02-08T06:45:00.647Z,-12.2
2024-02-08T06:50:08.297Z,-12.6
2024-02-08T06:55:00.784Z,-12.8
2024-02-08T07:00:00.624Z,-12.9
2024-02-08T07:05:15.381Z,-12.7
2024-02-08T07:10:00.732Z,-13.1
2024-02-08T07:15:01.069Z,-13.1
2024-02-08T07:20:08.555Z,-12.6
2024-02-08T07:25:03.664Z,-12.7
2024-02-08T07:30:00.657Z,-12.4
2024-02-08T07:35:08.220Z,-12.4
2024-02-08T07:40:00.814Z,-12.4
2024-02-08T07:45:01.167Z,-12.2
2024-02-08T07:50:08.502Z,-12.2
2024-02-08T07:55:00.996Z,-11.5
2024-02-08T08:00:00.680Z,-11.4
2024-02-08T08:05:08.355Z,-10.9
2024-02-08T08:10:00.726Z,-10.5
2024-02-08T08:15:00.697Z,-10.1
2024-02-08T08:20:08.737Z,-10.2
2024-02-08T08:25:01.106Z,-9.9
2024-02-08T08:30:00.986Z,-10.3
2024-02-08T08:35:08.391Z,-10.1
2024-02-08T08:40:00.811Z,-9.8
2024-02-08T08:45:00.901Z,-10.5
2024-02-08T08:50:08.501Z,-9.6
2024-02-08T08:55:00.734Z,-9.5
2024-02-08T09:00:10.989Z,-9.1
2024-02-08T09:05:08.371Z,-8.4
2024-02-08T09:10:00.878Z,-8.6
2024-02-08T09:15:00.735Z,-9.5
2024-02-08T09:20:10.407Z,-8.4
2024-02-08T09:25:00.686Z,-8.4
2024-02-08T09:30:00.653Z,-8.3
2024-02-08T09:35:10.695Z,-8.2
2024-02-08T09:40:01.147Z,-7.9
2024-02-08T09:45:01.278Z,-7.6
2024-02-08T09:50:08.765Z,-7.8
2024-02-08T09:55:01.011Z,-7.1
2024-02-08T10:00:01.966Z,-7.7
2024-02-08T10:05:09.192Z,-6.9
2024-02-08T10:10:10.737Z,-6.8
2024-02-08T10:15:00.641Z,-7.2
2024-02-08T10:20:08.579Z,-5.7
2024-02-08T10:25:00.748Z,-5.9
2024-02-08T10:30:01.159Z,-5.8
2024-02-08T10:35:08.594Z,-6.8
2024-02-08T10:40:00.702Z,-6.5
2024-02-08T10:45:05.240Z,-5.7
2024-02-08T10:50:09.668Z,-6.6
2024-02-08T10:55:03.043Z,-7.0
2024-02-08T11:00:01.644Z,-7.0
2024-02-08T11:05:09.346Z,-6.7
2024-02-08T11:10:00.755Z,-6.6
2024-02-08T11:15:08.157Z,-7.1
2024-02-08T11:20:08.410Z,-7.3
2024-02-08T11:25:02.070Z,-7.9
2024-02-08T11:30:00.893Z,-8.4
2024-02-08T11:35:15.453Z,-8.9
2024-02-08T11:40:02.506Z,-8.7
2024-02-08T11:45:01.026Z,-8.6
2024-02-08T11:50:15.431Z,-8.0
2024-02-08T11:55:02.754Z,-7.4
2024-02-08T12:00:00.947Z,-7.6
2024-02-08T12:05:08.518Z,-7.8
2024-02-08T12:10:00.732Z,-7.5
2024-02-08T12:15:01.011Z,-7.3
2024-02-08T12:20:09.146Z,-7.1
2024-02-08T12:25:01.307Z,-6.9
2024-02-08T12:30:02.948Z,-6.9
2024-02-08T12:35:10.380Z,-7.5
2024-02-08T12:40:04.496Z,-7.7
2024-02-08T12:45:00.785Z,-8.1
2024-02-08T12:50:15.065Z,-8.2
2024-02-08T12:55:00.697Z,-8.5
2024-02-08T13:00:01.808Z,-8.8
2024-02-08T13:05:08.196Z,-9.0
2024-02-08T13:10:02.278Z,-8.9
2024-02-08T13:15:01.282Z,-8.4
2024-02-08T13:20:08.942Z,-8.4
2024-02-08T13:25:00.688Z,-9.1
2024-02-08T13:30:00.794Z,-9.3
2024-02-08T13:35:15.183Z,-9.6
2024-02-08T13:40:02.215Z,-10.3
2024-02-08T13:45:01.430Z,-10.5
2024-02-08T13:50:08.417Z,-10.6
2024-02-08T13:55:00.678Z,-10.7
2024-02-08T14:00:00.900Z,-10.6
2024-02-08T14:05:08.457Z,-10.8
2024-02-08T14:10:00.798Z,-10.9
2024-02-08T14:15:01.264Z,-11.2
2024-02-08T14:20:08.627Z,-11.2
2024-02-08T14:25:00.679Z,-11.2
2024-02-08T14:30:00.639Z,-11.2
2024-02-08T14:35:10.392Z,-11.4
2024-02-08T14:40:00.720Z,-11.4
2024-02-08T14:45:00.644Z,-11.4
2024-02-08T14:50:08.236Z,-11.4
2024-02-08T14:55:02.154Z,-11.5
2024-02-08T15:00:00.643Z,-11.5
2024-02-08T15:05:08.130Z,-11.5
2024-02-08T15:10:00.679Z,-11.6
2024-02-08T15:15:00.694Z,-11.9
2024-02-08T15:20:10.430Z,-11.6
2024-02-08T15:25:00.726Z,-11.8
2024-02-08T15:30:01.469Z,-11.7
2024-02-08T15:35:08.313Z,-12.0
2024-02-08T15:40:00.732Z,-11.7
2024-02-08T15:45:01.104Z,-11.7
2024-02-08T15:50:08.381Z,-12.0
2024-02-08T15:55:00.996Z,-11.8
2024-02-08T16:00:01.128Z,-11.9
2024-02-08T16:05:08.241Z,-11.9
2024-02-08T16:10:02.557Z,-11.8
2024-02-08T16:15:01.196Z,-12.0
2024-02-08T16:20:09.058Z,-12.0
2024-02-08T16:25:00.693Z,-12.3
2024-02-08T16:30:01.136Z,-12.2
2024-02-08T16:35:08.418Z,-12.4
2024-02-08T16:40:00.895Z,-12.2
2024-02-08T16:45:00.873Z,-12.1
2024-02-08T16:50:08.662Z,-12.3
2024-02-08T16:55:01.742Z,-12.4
2024-02-08T17:00:00.680Z,-12.3
2024-02-08T17:05:10.746Z,-12.1
2024-02-08T17:10:01.273Z,-12.5
2024-02-08T17:15:00.633Z,-12.3
2024-02-08T17:20:10.366Z,-12.3
2024-02-08T17:25:00.823Z,-12.5
2024-02-08T17:30:00.891Z,-12.6
2024-02-08T17:35:10.665Z,-12.3
2024-02-08T17:40:00.707Z,-12.2
2024-02-08T17:45:00.653Z,-12.7
2024-02-08T17:50:08.615Z,-12.7
2024-02-08T17:55:00.678Z,-12.5
2024-02-08T18:00:01.296Z,-12.8
2024-02-08T18:05:08.223Z,-12.6
2024-02-08T18:10:00.740Z,-12.5
2024-02-08T18:15:01.134Z,-12.6
2024-02-08T18:20:08.824Z,-12.7
2024-02-08T18:25:01.703Z,-12.7
2024-02-08T18:30:01.102Z,-12.8
2024-02-08T18:35:09.195Z,-13.0
2024-02-08T18:40:01.013Z,-12.9
2024-02-08T18:45:00.625Z,-12.8
2024-02-08T18:50:08.540Z,-12.9
2024-02-08T18:55:01.085Z,-13.4
2024-02-08T19:00:00.900Z,-12.9
2024-02-08T19:15:08.559Z,-13.1
2024-02-08T19:20:00.942Z,-13.1
2024-02-08T19:25:00.665Z,-13.2
2024-02-08T19:30:12.857Z,-13.2
2024-02-08T19:35:00.783Z,-13.4
2024-02-08T19:40:00.682Z,-13.4
2024-02-08T19:50:09.064Z,-13.3
2024-02-08T19:55:00.926Z,-13.3
2024-02-08T20:00:00.670Z,-13.4
2024-02-08T20:05:08.482Z,-13.3
2024-02-08T20:10:00.679Z,-13.5
2024-02-08T20:15:10.585Z,-13.5
2024-02-08T20:20:09.031Z,-13.4
2024-02-08T20:25:00.666Z,-13.5
2024-02-08T20:30:15.266Z,-13.5
2024-02-08T20:35:00.669Z,-13.4
2024-02-08T20:40:00.701Z,-13.7
2024-02-08T20:50:09.360Z,-13.5
2024-02-08T21:00:00.723Z,-13.7
2024-02-08T21:05:10.299Z,-13.4
2024-02-08T21:10:00.782Z,-13.6
2024-02-08T21:15:00.663Z,-13.8
2024-02-08T21:30:08.563Z,-13.6
2024-02-08T21:35:00.672Z,-13.8
2024-02-08T21:40:00.669Z,-14.0
2024-02-08T21:50:00.805Z,-14.1
2024-02-08T21:55:01.054Z,-14.1
2024-02-08T22:00:10.653Z,-14.2
2024-02-08T22:05:29.502Z,-14.0
2024-02-08T22:10:00.943Z,-14.1
2024-02-08T22:15:08.429Z,-14.2
2024-02-08T22:20:00.642Z,-14.2
2024-02-08T22:25:00.671Z,-14.3
2024-02-08T22:30:08.549Z,-14.4
2024-02-08T22:35:00.864Z,-14.4
2024-02-08T22:40:01.203Z,-14.3
2024-02-08T22:45:08.794Z,-14.7
2024-02-08T22:50:00.730Z,-14.3
2024-02-08T22:55:00.669Z,-14.4
2024-02-08T23:00:09.481Z,-14.2
2024-02-08T23:05:00.799Z,-14.3
2024-02-08T23:10:00.669Z,-14.4
2024-02-08T23:15:08.349Z,-14.4
2024-02-08T23:20:00.690Z,-14.5
2024-02-08T23:25:00.623Z,-14.6
2024-02-08T23:30:10.287Z,-14.6
2024-02-08T23:35:00.795Z,-14.6
2024-02-08T23:40:00.921Z,-14.6
2024-02-08T23:45:08.596Z,-14.6
2024-02-08T23:50:00.713Z,-14.6
2024-02-08T23:55:00.650Z,-14.7
